createdAt,value
2017-12-03T00:00:27.165Z,26.00
2017-12-03T00:01:01.057Z,23.17
2017-12-03T00:01:35.108Z,21.95
2017-12-03T00:02:08.969Z,22.85
2017-12-03T00:02:42.848Z,24.52
2017-12-03T00:03:16.752Z,23.95
2017-12-03T00:03:50.685Z,20.75
2017-12-03T00:04:24.602Z,21.00
2017-12-03T00:04:58.517Z,20.98
2017-12-03T00:05:32.464Z,20.30
2017-12-03T00:06:06.333Z,22.30
2017-12-03T00:06:40.230Z,22.90
2017-12-03T00:07:14.128Z,22.85
2017-12-03T00:07:48.012Z,21.30
2017-12-03T00:08:21.939Z,20.85
2017-12-03T00:08:56.551Z,23.05
2017-12-03T00:09:30.421Z,21.05
2017-12-03T00:10:05.129Z,22.35
2017-12-03T00:10:39.009Z,22.02
2017-12-03T00:11:12.909Z,20.42
2017-12-03T00:11:46.797Z,25.88
2017-12-03T00:12:20.664Z,28.87
2017-12-03T00:12:54.527Z,24.37
2017-12-03T00:13:28.418Z,24.20
2017-12-03T00:14:02.297Z,23.92
2017-12-03T00:14:36.166Z,26.00
2017-12-03T00:15:10.041Z,22.58
2017-12-03T00:15:43.928Z,24.35
2017-12-03T00:16:17.824Z,24.08
2017-12-03T00:16:51.730Z,27.37
2017-12-03T00:17:25.601Z,26.00
2017-12-03T00:17:59.468Z,25.55
2017-12-03T00:18:33.337Z,22.15
2017-12-03T00:19:07.269Z,22.00
2017-12-03T00:19:43.312Z,23.12
2017-12-03T00:20:17.732Z,22.27
2017-12-03T00:20:51.723Z,23.17
2017-12-03T00:21:26.586Z,24.92
2017-12-03T00:22:00.807Z,26.27
2017-12-03T00:22:34.732Z,25.83
2017-12-03T00:23:08.641Z,23.67
2017-12-03T00:23:42.769Z,23.58
2017-12-03T00:24:17.124Z,22.15
2017-12-03T00:24:51.212Z,23.75
2017-12-03T00:25:25.819Z,20.70
2017-12-03T00:26:00.059Z,22.25
2017-12-03T00:26:34.107Z,22.50
2017-12-03T00:27:08.020Z,21.48
2017-12-03T00:27:42.050Z,20.85
2017-12-03T00:28:21.153Z,22.15
2017-12-03T00:28:58.191Z,20.92
2017-12-03T00:29:32.642Z,21.10
2017-12-03T00:30:08.408Z,22.27
2017-12-03T00:30:42.462Z,28.80
2017-12-03T00:31:20.094Z,24.45
2017-12-03T00:31:53.986Z,22.02
2017-12-03T00:32:30.299Z,20.83
2017-12-03T00:33:49.982Z,25.48
2017-12-03T00:34:41.262Z,20.75
2017-12-03T00:35:59.978Z,20.62
2017-12-03T00:36:36.626Z,24.15
2017-12-03T00:37:11.745Z,19.87
2017-12-03T00:37:46.875Z,21.30
2017-12-03T00:38:21.508Z,19.77
2017-12-03T00:38:55.500Z,22.20
2017-12-03T00:39:29.373Z,21.15
2017-12-03T00:40:03.270Z,21.12
2017-12-03T00:40:37.205Z,23.38
2017-12-03T00:41:12.608Z,23.77
2017-12-03T00:41:47.575Z,23.45
2017-12-03T00:42:26.444Z,26.08
2017-12-03T00:43:00.790Z,21.92
2017-12-03T00:43:37.226Z,24.23
2017-12-03T00:45:00.402Z,23.50
2017-12-03T00:45:40.541Z,30.30
2017-12-03T00:46:16.274Z,24.87
2017-12-03T00:46:50.862Z,23.10
2017-12-03T00:47:24.728Z,25.92
2017-12-03T00:47:59.700Z,25.08
2017-12-03T00:48:34.493Z,22.27
2017-12-03T00:51:08.431Z,20.85
2017-12-03T00:52:04.313Z,22.83
2017-12-03T00:53:47.677Z,27.17
2017-12-03T00:55:14.217Z,23.62
2017-12-03T00:55:54.201Z,28.05
2017-12-03T00:56:31.763Z,25.35
2017-12-03T00:57:05.927Z,22.73
2017-12-03T00:57:45.085Z,21.50
2017-12-03T00:58:19.441Z,21.52
2017-12-03T00:58:54.484Z,22.33
2017-12-03T00:59:29.473Z,24.42
2017-12-03T01:00:03.950Z,23.60
2017-12-03T01:00:39.801Z,25.35
2017-12-03T01:01:13.858Z,24.02
2017-12-03T01:01:48.125Z,21.55
2017-12-03T01:02:21.992Z,21.92
2017-12-03T01:02:55.884Z,29.55
2017-12-03T01:03:30.003Z,23.30
2017-12-03T01:04:03.885Z,24.60
2017-12-03T01:04:37.756Z,23.48
2017-12-03T01:05:11.631Z,21.73
2017-12-03T01:05:46.341Z,22.35
2017-12-03T01:06:20.877Z,23.05
2017-12-03T01:06:54.786Z,22.37
2017-12-03T01:07:28.962Z,22.05
2017-12-03T01:08:02.826Z,22.52
2017-12-03T01:08:36.701Z,22.92
2017-12-03T01:09:10.596Z,20.60
2017-12-03T01:09:44.527Z,20.17
2017-12-03T01:10:18.406Z,21.45
2017-12-03T01:10:52.792Z,21.58
2017-12-03T01:11:26.663Z,21.50
2017-12-03T01:12:00.549Z,22.75
2017-12-03T01:12:35.252Z,22.08
2017-12-03T01:13:09.121Z,21.45
2017-12-03T01:13:42.987Z,21.70
2017-12-03T01:14:16.861Z,21.45
2017-12-03T01:14:50.728Z,22.50
2017-12-03T01:15:24.784Z,21.67
2017-12-03T01:15:58.666Z,21.75
2017-12-03T01:16:32.585Z,22.80
2017-12-03T01:17:06.502Z,21.73
2017-12-03T01:17:40.588Z,22.77
2017-12-03T01:18:14.468Z,22.60
2017-12-03T01:18:48.929Z,21.98
2017-12-03T01:19:22.824Z,22.67
2017-12-03T01:19:56.725Z,21.42
2017-12-03T01:20:30.598Z,23.38
2017-12-03T01:21:04.573Z,23.55
2017-12-03T01:21:38.556Z,22.15
2017-12-03T01:22:12.441Z,21.15
2017-12-03T01:22:46.303Z,22.52
2017-12-03T01:23:20.187Z,21.35
2017-12-03T01:23:54.055Z,22.00
2017-12-03T01:24:27.936Z,22.25
2017-12-03T01:25:01.814Z,21.10
2017-12-03T01:25:35.909Z,21.73
2017-12-03T01:26:09.769Z,20.92
2017-12-03T01:26:43.640Z,24.30
2017-12-03T01:27:17.519Z,22.80
2017-12-03T01:27:51.392Z,23.70
2017-12-03T01:28:25.268Z,22.25
2017-12-03T01:28:59.159Z,22.62
2017-12-03T01:29:33.033Z,21.87
2017-12-03T01:30:06.906Z,22.33
2017-12-03T01:30:40.774Z,23.15
2017-12-03T01:31:14.706Z,21.70
2017-12-03T01:31:48.573Z,21.23
2017-12-03T01:32:22.456Z,21.67
2017-12-03T01:32:56.339Z,23.90
2017-12-03T01:33:30.242Z,21.50
2017-12-03T01:34:04.143Z,22.10
2017-12-03T01:34:38.248Z,21.42
2017-12-03T01:35:13.148Z,23.40
2017-12-03T01:35:47.026Z,21.80
2017-12-03T01:36:20.900Z,21.40
2017-12-03T01:36:54.774Z,21.92
2017-12-03T01:37:28.660Z,22.65
2017-12-03T01:38:02.560Z,21.30
2017-12-03T01:38:36.438Z,21.87
2017-12-03T01:39:10.326Z,22.33
2017-12-03T01:39:44.203Z,22.70
2017-12-03T01:40:18.073Z,22.23
2017-12-03T01:40:51.943Z,22.70
2017-12-03T01:41:25.805Z,22.35
2017-12-03T01:41:59.696Z,22.02
2017-12-03T01:42:33.689Z,21.15
2017-12-03T01:43:07.574Z,22.45
2017-12-03T01:43:41.465Z,22.65
2017-12-03T01:44:15.364Z,22.15
2017-12-03T01:44:49.258Z,23.20
2017-12-03T01:45:23.151Z,21.33
2017-12-03T01:45:57.021Z,22.62
2017-12-03T01:46:30.898Z,20.88
2017-12-03T01:47:04.895Z,22.15
2017-12-03T01:47:38.794Z,20.17
2017-12-03T01:48:12.705Z,24.92
2017-12-03T01:48:46.581Z,22.60
2017-12-03T01:49:20.449Z,21.50
2017-12-03T01:49:54.330Z,22.52
2017-12-03T01:50:28.241Z,22.00
2017-12-03T01:51:02.112Z,23.30
2017-12-03T01:51:36.131Z,20.70
2017-12-03T01:52:10.042Z,21.15
2017-12-03T01:52:43.945Z,21.65
2017-12-03T01:53:17.832Z,20.55
2017-12-03T01:53:51.825Z,20.55
2017-12-03T01:54:25.724Z,22.48
2017-12-03T01:54:59.721Z,29.17
2017-12-03T01:55:33.614Z,23.77
2017-12-03T01:56:07.475Z,21.90
2017-12-03T01:56:41.424Z,22.05
2017-12-03T01:57:15.322Z,20.02
2017-12-03T01:57:49.210Z,21.75
2017-12-03T01:58:23.086Z,21.65
2017-12-03T01:58:56.949Z,22.70
2017-12-03T01:59:30.876Z,25.95
2017-12-03T02:00:04.734Z,24.83
2017-12-03T02:00:38.628Z,22.58
2017-12-03T02:01:12.507Z,22.52
2017-12-03T02:01:46.357Z,22.73
2017-12-03T02:02:20.253Z,25.90
2017-12-03T02:02:54.146Z,20.95
2017-12-03T02:03:28.023Z,21.23
2017-12-03T02:04:01.890Z,25.65
2017-12-03T02:04:35.769Z,21.25
2017-12-03T02:05:09.670Z,23.75
2017-12-03T02:05:43.521Z,22.20
2017-12-03T02:06:17.392Z,24.35
2017-12-03T02:06:51.273Z,22.60
2017-12-03T02:07:25.146Z,22.13
2017-12-03T02:07:59.037Z,22.85
2017-12-03T02:08:33.084Z,20.80
2017-12-03T02:09:06.947Z,23.60
2017-12-03T02:09:40.891Z,25.67
2017-12-03T02:10:14.767Z,73.28
2017-12-03T02:10:48.650Z,312.08
2017-12-03T02:11:23.496Z,611.78
2017-12-03T02:11:57.387Z,372.45
2017-12-03T02:12:31.276Z,240.85
2017-12-03T02:13:05.178Z,104.63
2017-12-03T02:13:39.064Z,35.88
2017-12-03T02:14:12.953Z,27.85
2017-12-03T02:14:46.812Z,25.40
2017-12-03T02:15:20.705Z,22.02
2017-12-03T02:15:54.601Z,21.02
2017-12-03T02:16:28.476Z,22.27
2017-12-03T02:17:02.333Z,23.02
2017-12-03T02:17:37.147Z,21.62
2017-12-03T02:18:14.483Z,23.87
2017-12-03T02:19:03.222Z,25.62
2017-12-03T02:19:38.251Z,21.75
2017-12-03T02:21:17.380Z,20.77
2017-12-03T02:31:31.357Z,16.77
2017-12-03T02:32:05.358Z,17.12
2017-12-03T02:32:39.194Z,18.73
2017-12-03T02:33:13.061Z,19.55
2017-12-03T02:33:46.997Z,19.87
2017-12-03T02:34:20.878Z,20.23
2017-12-03T02:34:54.776Z,21.00
2017-12-03T02:35:28.646Z,22.90
2017-12-03T02:36:02.530Z,20.70
2017-12-03T02:36:36.403Z,21.05
2017-12-03T02:37:10.265Z,21.67
2017-12-03T02:37:44.134Z,22.10
2017-12-03T02:38:18.036Z,22.00
2017-12-03T02:38:51.934Z,23.02
2017-12-03T02:39:25.810Z,20.42
2017-12-03T02:39:59.680Z,22.00
2017-12-03T02:40:33.855Z,22.90
2017-12-03T02:41:07.966Z,21.87
2017-12-03T02:41:41.869Z,21.40
2017-12-03T02:42:15.806Z,23.58
2017-12-03T02:42:49.663Z,21.70
2017-12-03T02:43:23.538Z,21.08
2017-12-03T02:43:57.416Z,19.98
2017-12-03T02:44:31.294Z,22.42
2017-12-03T02:45:05.163Z,22.35
2017-12-03T02:45:39.030Z,21.77
2017-12-03T02:46:12.921Z,24.05
2017-12-03T02:46:46.812Z,21.50
2017-12-03T02:47:20.716Z,21.67
2017-12-03T02:47:54.600Z,21.70
2017-12-03T02:48:28.475Z,22.30
2017-12-03T02:49:02.354Z,21.00
2017-12-03T02:49:36.216Z,20.23
2017-12-03T02:50:10.086Z,21.92
2017-12-03T02:50:43.978Z,23.10
2017-12-03T02:51:17.850Z,23.40
2017-12-03T02:51:51.740Z,21.17
2017-12-03T02:52:25.610Z,21.08
2017-12-03T02:52:59.556Z,21.80
2017-12-03T02:53:33.442Z,23.42
2017-12-03T02:54:07.454Z,23.23
2017-12-03T02:54:41.336Z,22.92
2017-12-03T02:55:15.221Z,23.15
2017-12-03T02:55:49.073Z,22.73
2017-12-03T02:56:23.130Z,23.20
2017-12-03T02:56:57.030Z,22.08
2017-12-03T02:57:31.029Z,22.70
2017-12-03T02:58:04.917Z,22.15
2017-12-03T02:58:38.795Z,21.87
2017-12-03T02:59:12.659Z,22.13
2017-12-03T02:59:46.516Z,21.35
2017-12-03T03:00:20.404Z,19.00
2017-12-03T03:00:54.298Z,21.45
2017-12-03T03:01:28.187Z,22.50
2017-12-03T03:02:02.066Z,22.23
2017-12-03T03:02:35.944Z,21.02
2017-12-03T03:03:09.798Z,22.13
2017-12-03T03:03:43.655Z,21.85
2017-12-03T03:04:17.524Z,23.95
2017-12-03T03:04:51.428Z,21.37
2017-12-03T03:05:25.522Z,22.02
2017-12-03T03:05:59.379Z,21.35
2017-12-03T03:06:33.341Z,21.70
2017-12-03T03:07:07.225Z,20.35
2017-12-03T03:07:41.231Z,22.62
2017-12-03T03:08:15.120Z,21.67
2017-12-03T03:08:48.998Z,24.02
2017-12-03T03:09:22.850Z,20.23
2017-12-03T03:09:56.805Z,20.65
2017-12-03T03:10:30.763Z,21.35
2017-12-03T03:11:05.449Z,21.90
2017-12-03T03:11:40.451Z,20.85
2017-12-03T03:12:14.366Z,20.77
2017-12-03T03:12:48.248Z,19.87
2017-12-03T03:13:22.117Z,21.12
2017-12-03T03:13:55.982Z,21.15
2017-12-03T03:14:29.885Z,20.98
2017-12-03T03:15:03.754Z,21.17
2017-12-03T03:15:37.635Z,19.37
2017-12-03T03:16:11.600Z,20.60
2017-12-03T03:16:45.603Z,20.08
2017-12-03T03:17:19.492Z,20.45
2017-12-03T03:17:53.627Z,20.25
2017-12-03T03:18:27.515Z,20.75
2017-12-03T03:19:01.545Z,20.75
2017-12-03T03:19:35.618Z,20.10
2017-12-03T03:20:09.527Z,19.95
2017-12-03T03:20:43.384Z,18.50
2017-12-03T03:21:17.245Z,20.92
2017-12-03T03:21:51.280Z,21.02
2017-12-03T03:22:25.169Z,21.10
2017-12-03T03:22:59.172Z,20.67
2017-12-03T03:23:33.122Z,21.05
2017-12-03T03:24:07.260Z,20.85
2017-12-03T03:24:41.641Z,19.80
2017-12-03T03:25:15.583Z,18.23
2017-12-03T03:25:49.578Z,21.48
2017-12-03T03:26:23.454Z,21.52
2017-12-03T03:26:57.321Z,18.80
2017-12-03T03:27:31.374Z,20.77
2017-12-03T03:28:05.259Z,22.55
2017-12-03T03:28:39.125Z,22.45
2017-12-03T03:29:13.041Z,21.42
2017-12-03T03:29:47.840Z,26.55
2017-12-03T03:30:21.954Z,23.83
2017-12-03T03:30:55.871Z,32.45
2017-12-03T03:31:29.743Z,22.30
2017-12-03T03:32:03.609Z,22.05
2017-12-03T03:32:37.548Z,21.33
2017-12-03T03:33:12.325Z,23.25
2017-12-03T03:33:46.206Z,21.23
2017-12-03T03:34:20.076Z,22.10
2017-12-03T03:34:53.924Z,20.55
2017-12-03T03:35:27.801Z,21.12
2017-12-03T03:36:01.691Z,21.55
2017-12-03T03:36:36.274Z,21.73
2017-12-03T03:37:10.162Z,20.08
2017-12-03T03:37:44.337Z,22.05
2017-12-03T03:38:18.221Z,21.23
2017-12-03T03:38:52.086Z,21.08
2017-12-03T03:39:25.948Z,22.08
2017-12-03T03:39:59.813Z,23.08
2017-12-03T03:40:33.666Z,21.62
2017-12-03T03:41:07.573Z,22.15
2017-12-03T03:41:41.436Z,23.02
2017-12-03T03:42:15.389Z,21.17
2017-12-03T03:42:49.293Z,21.45
2017-12-03T03:43:23.169Z,22.87
2017-12-03T03:43:57.038Z,22.10
2017-12-03T03:44:30.897Z,21.80
2017-12-03T03:45:04.768Z,21.10
2017-12-03T03:45:38.653Z,20.77
2017-12-03T03:46:12.510Z,22.00
2017-12-03T03:46:46.377Z,23.02
2017-12-03T03:47:20.300Z,22.85
2017-12-03T03:47:54.193Z,22.80
2017-12-03T03:48:28.108Z,22.98
2017-12-03T03:49:01.987Z,23.10
2017-12-03T03:49:35.866Z,21.15
2017-12-03T03:50:09.753Z,23.35
2017-12-03T03:50:43.608Z,22.65
2017-12-03T03:51:17.457Z,22.60
2017-12-03T03:51:51.329Z,22.45
2017-12-03T03:52:25.187Z,22.85
2017-12-03T03:52:59.081Z,23.50
2017-12-03T03:53:32.938Z,24.75
2017-12-03T03:54:06.835Z,25.60
2017-12-03T03:54:40.701Z,24.58
2017-12-03T03:55:14.565Z,21.83
2017-12-03T03:55:48.470Z,23.35
2017-12-03T03:56:22.328Z,23.58
2017-12-03T03:56:56.203Z,23.95
2017-12-03T03:57:30.067Z,23.60
2017-12-03T03:58:03.932Z,24.30
2017-12-03T03:58:37.781Z,24.27
2017-12-03T03:59:11.635Z,23.45
2017-12-03T03:59:45.509Z,22.75
2017-12-03T04:00:19.365Z,23.52
2017-12-03T04:00:53.226Z,24.10
2017-12-03T04:01:27.091Z,22.70
2017-12-03T04:02:00.983Z,23.02
2017-12-03T04:02:34.838Z,24.37
2017-12-03T04:03:08.740Z,25.20
2017-12-03T04:03:42.650Z,24.33
2017-12-03T04:04:16.549Z,26.27
2017-12-03T04:04:50.424Z,23.35
2017-12-03T04:05:24.312Z,23.70
2017-12-03T04:05:58.187Z,22.65
2017-12-03T04:06:32.078Z,23.08
2017-12-03T04:07:05.976Z,24.00
2017-12-03T04:07:39.836Z,25.27
2017-12-03T04:08:13.725Z,25.85
2017-12-03T04:08:47.583Z,24.60
2017-12-03T04:09:21.432Z,24.08
2017-12-03T04:09:55.280Z,23.73
2017-12-03T04:10:29.145Z,24.73
2017-12-03T04:11:03.030Z,25.08
2017-12-03T04:11:36.891Z,24.25
2017-12-03T04:12:10.780Z,24.63
2017-12-03T04:12:44.641Z,25.08
2017-12-03T04:13:18.528Z,23.58
2017-12-03T04:13:52.389Z,25.15
2017-12-03T04:14:26.258Z,24.40
2017-12-03T04:15:00.134Z,24.15
2017-12-03T04:15:34.012Z,25.52
2017-12-03T04:16:07.869Z,26.55
2017-12-03T04:16:41.738Z,25.60
2017-12-03T04:17:15.701Z,24.20
2017-12-03T04:17:49.588Z,24.00
2017-12-03T04:18:23.481Z,25.02
2017-12-03T04:18:57.349Z,22.92
2017-12-03T04:19:31.215Z,24.37
2017-12-03T04:20:05.100Z,24.23
2017-12-03T04:20:38.962Z,26.00
2017-12-03T04:21:12.829Z,23.75
2017-12-03T04:21:46.698Z,23.70
2017-12-03T04:22:20.553Z,24.55
2017-12-03T04:22:54.440Z,25.05
2017-12-03T04:23:28.329Z,24.55
2017-12-03T04:24:02.184Z,25.15
2017-12-03T04:24:36.057Z,24.60
2017-12-03T04:25:09.948Z,25.08
2017-12-03T04:25:43.821Z,26.25
2017-12-03T04:26:17.698Z,23.50
2017-12-03T04:26:51.595Z,24.15
2017-12-03T04:27:25.456Z,25.70
2017-12-03T04:27:59.323Z,25.90
2017-12-03T04:28:33.198Z,27.23
2017-12-03T04:29:07.071Z,24.05
2017-12-03T04:29:40.944Z,25.12
2017-12-03T04:30:14.819Z,22.00
2017-12-03T04:30:48.691Z,22.62
2017-12-03T04:31:22.561Z,24.60
2017-12-03T04:31:56.442Z,25.83
2017-12-03T04:32:30.297Z,24.95
2017-12-03T04:33:04.162Z,24.95
2017-12-03T04:33:38.037Z,24.87
2017-12-03T04:34:11.925Z,22.75
2017-12-03T04:34:45.770Z,24.63
2017-12-03T04:35:19.645Z,25.08
2017-12-03T04:35:53.515Z,24.85
2017-12-03T04:36:27.381Z,21.85
2017-12-03T04:37:01.249Z,23.90
2017-12-03T04:37:35.114Z,24.37
2017-12-03T04:38:08.972Z,23.98
2017-12-03T04:38:42.881Z,25.15
2017-12-03T04:39:16.758Z,25.27
2017-12-03T04:39:50.631Z,23.58
2017-12-03T04:40:24.492Z,25.12
2017-12-03T04:40:58.365Z,24.65
2017-12-03T04:41:32.240Z,23.30
2017-12-03T04:42:06.121Z,25.23
2017-12-03T04:42:40.018Z,23.40
2017-12-03T04:43:13.881Z,24.35
2017-12-03T04:43:47.752Z,23.33
2017-12-03T04:44:21.621Z,23.70
2017-12-03T04:44:55.502Z,23.65
2017-12-03T04:45:29.373Z,25.15
2017-12-03T04:46:03.281Z,24.95
2017-12-03T04:46:37.161Z,24.42
2017-12-03T04:47:11.033Z,25.10
2017-12-03T04:47:44.910Z,26.37
2017-12-03T04:48:18.774Z,25.45
2017-12-03T04:48:52.663Z,24.75
2017-12-03T04:49:26.522Z,24.83
2017-12-03T04:50:00.394Z,23.58
2017-12-03T04:50:34.261Z,24.65
2017-12-03T04:51:08.144Z,24.08
2017-12-03T04:51:42.014Z,24.73
2017-12-03T04:52:15.892Z,25.23
2017-12-03T04:52:49.787Z,26.12
2017-12-03T04:53:23.650Z,26.37
2017-12-03T04:53:57.536Z,25.37
2017-12-03T04:54:31.404Z,24.80
2017-12-03T04:55:05.291Z,26.17
2017-12-03T04:55:39.160Z,25.05
2017-12-03T04:56:13.010Z,25.77
2017-12-03T04:56:46.878Z,25.70
2017-12-03T04:57:20.772Z,25.73
2017-12-03T04:57:55.120Z,26.45
2017-12-03T04:58:28.989Z,25.20
2017-12-03T04:59:02.886Z,26.65
2017-12-03T04:59:36.761Z,24.92
2017-12-03T05:00:10.642Z,25.15
2017-12-03T05:00:44.515Z,23.87
2017-12-03T05:01:18.388Z,25.52
2017-12-03T05:01:52.259Z,26.40
2017-12-03T05:02:26.133Z,26.17
2017-12-03T05:03:00.027Z,26.45
2017-12-03T05:03:33.925Z,26.52
2017-12-03T05:04:07.832Z,25.08
2017-12-03T05:04:41.717Z,26.20
2017-12-03T05:05:15.699Z,24.90
2017-12-03T05:05:49.572Z,26.25
2017-12-03T05:06:23.448Z,25.88
2017-12-03T05:06:57.316Z,26.58
2017-12-03T05:07:31.194Z,27.33
2017-12-03T05:08:05.060Z,26.48
2017-12-03T05:08:38.916Z,25.35
2017-12-03T05:09:12.796Z,27.05
2017-12-03T05:09:46.661Z,27.70
2017-12-03T05:10:20.561Z,26.42
2017-12-03T05:10:54.416Z,27.35
2017-12-03T05:11:28.261Z,25.85
2017-12-03T05:12:02.118Z,26.20
2017-12-03T05:12:35.987Z,25.50
2017-12-03T05:13:09.858Z,27.50
2017-12-03T05:13:43.713Z,27.05
2017-12-03T05:14:17.578Z,24.33
2017-12-03T05:14:51.428Z,27.15
2017-12-03T05:15:25.300Z,25.52
2017-12-03T05:16:00.115Z,25.55
2017-12-03T05:16:34.054Z,26.02
2017-12-03T05:17:07.913Z,25.55
2017-12-03T05:17:41.838Z,26.67
2017-12-03T05:18:15.941Z,27.85
2017-12-03T05:18:49.851Z,27.20
2017-12-03T05:19:23.767Z,26.83
2017-12-03T05:19:57.654Z,26.00
2017-12-03T05:20:31.520Z,26.73
2017-12-03T05:21:05.373Z,28.70
2017-12-03T05:21:39.248Z,27.35
2017-12-03T05:22:13.109Z,27.60
2017-12-03T05:22:47.060Z,26.27
2017-12-03T05:23:20.938Z,28.52
2017-12-03T05:23:54.849Z,26.62
2017-12-03T05:24:28.745Z,26.42
2017-12-03T05:25:02.597Z,26.65
2017-12-03T05:25:36.468Z,24.58
2017-12-03T05:26:10.333Z,29.12
2017-12-03T05:26:44.195Z,26.15
2017-12-03T05:27:18.056Z,28.33
2017-12-03T05:27:51.942Z,28.77
2017-12-03T05:28:25.820Z,24.75
2017-12-03T05:28:59.693Z,27.08
2017-12-03T05:29:33.584Z,27.05
2017-12-03T05:30:07.482Z,28.30
2017-12-03T05:30:41.358Z,25.92
2017-12-03T05:31:15.221Z,27.00
2017-12-03T05:31:49.234Z,27.92
2017-12-03T05:32:23.095Z,27.77
2017-12-03T05:33:01.751Z,28.58
2017-12-03T05:33:35.605Z,29.80
2017-12-03T05:34:09.470Z,28.55
2017-12-03T05:34:43.348Z,27.30
2017-12-03T05:35:17.232Z,29.00
2017-12-03T05:35:51.093Z,27.13
2017-12-03T05:36:24.967Z,25.48
2017-12-03T05:36:58.825Z,28.45
2017-12-03T05:37:32.694Z,28.42
2017-12-03T05:38:06.586Z,27.85
2017-12-03T05:38:40.446Z,28.70
2017-12-03T05:39:14.317Z,26.58
2017-12-03T05:39:48.200Z,28.12
2017-12-03T05:40:22.057Z,29.85
2017-12-03T05:40:56.064Z,28.27
2017-12-03T05:41:29.923Z,28.23
2017-12-03T05:42:03.793Z,30.12
2017-12-03T05:42:37.673Z,29.30
2017-12-03T05:43:11.534Z,29.67
2017-12-03T05:43:45.421Z,29.87
2017-12-03T05:44:19.294Z,28.35
2017-12-03T05:44:53.187Z,30.65
2017-12-03T05:45:27.058Z,27.98
2017-12-03T05:46:00.935Z,31.37
2017-12-03T05:46:34.833Z,28.75
2017-12-03T05:47:08.688Z,29.90
2017-12-03T05:47:42.633Z,31.02
2017-12-03T05:48:16.513Z,29.70
2017-12-03T05:48:50.370Z,29.75
2017-12-03T05:49:24.240Z,29.63
2017-12-03T05:49:58.116Z,30.27
2017-12-03T05:50:31.998Z,27.02
2017-12-03T05:51:05.904Z,28.38
2017-12-03T05:51:39.779Z,29.35
2017-12-03T05:52:13.665Z,30.25
2017-12-03T05:52:47.535Z,30.70
2017-12-03T05:53:21.425Z,29.48
2017-12-03T05:53:55.304Z,30.65
2017-12-03T05:54:29.166Z,30.02
2017-12-03T05:55:03.050Z,29.35
2017-12-03T05:55:36.921Z,30.30
2017-12-03T05:56:10.774Z,29.67
2017-12-03T05:56:44.673Z,30.12
2017-12-03T05:57:18.561Z,29.85
2017-12-03T05:57:52.433Z,29.85
2017-12-03T05:58:26.310Z,30.23
2017-12-03T05:59:00.201Z,30.20
2017-12-03T05:59:34.057Z,30.30
2017-12-03T06:00:07.937Z,30.98
2017-12-03T06:00:41.806Z,29.37
2017-12-03T06:01:15.740Z,30.05
2017-12-03T06:01:49.612Z,30.65
2017-12-03T06:02:23.479Z,32.67
2017-12-03T06:02:57.364Z,29.70
2017-12-03T06:03:31.244Z,30.35
2017-12-03T06:04:05.110Z,30.80
2017-12-03T06:04:38.990Z,29.40
2017-12-03T06:05:13.084Z,29.50
2017-12-03T06:05:46.975Z,28.70
2017-12-03T06:06:20.835Z,29.95
2017-12-03T06:06:54.730Z,30.48
2017-12-03T06:07:28.618Z,28.83
2017-12-03T06:08:02.487Z,30.70
2017-12-03T06:08:36.360Z,31.10
2017-12-03T06:09:10.226Z,31.05
2017-12-03T06:09:44.091Z,31.90
2017-12-03T06:10:17.988Z,29.77
2017-12-03T06:10:51.861Z,29.80
2017-12-03T06:11:25.730Z,31.50
2017-12-03T06:11:59.678Z,32.15
2017-12-03T06:12:33.655Z,28.95
2017-12-03T06:13:07.519Z,29.73
2017-12-03T06:13:41.394Z,30.45
2017-12-03T06:14:15.259Z,29.87
2017-12-03T06:14:49.109Z,31.58
2017-12-03T06:15:22.977Z,30.37
2017-12-03T06:15:56.850Z,31.80
2017-12-03T06:16:30.727Z,30.50
2017-12-03T06:17:04.614Z,31.40
2017-12-03T06:17:38.486Z,30.90
2017-12-03T06:18:12.400Z,33.38
2017-12-03T06:18:46.273Z,32.42
2017-12-03T06:19:20.144Z,28.45
2017-12-03T06:19:54.017Z,31.02
2017-12-03T06:20:27.928Z,30.88
2017-12-03T06:21:01.805Z,29.48
2017-12-03T06:21:35.674Z,30.95
2017-12-03T06:22:09.547Z,31.08
2017-12-03T06:22:43.414Z,30.37
2017-12-03T06:23:17.402Z,31.30
2017-12-03T06:23:51.264Z,29.55
2017-12-03T06:24:25.113Z,30.30
2017-12-03T06:24:58.985Z,30.65
2017-12-03T06:25:32.896Z,32.03
2017-12-03T06:26:06.753Z,29.45
2017-12-03T06:26:40.628Z,30.05
2017-12-03T06:27:14.509Z,32.00
2017-12-03T06:27:48.376Z,30.73
2017-12-03T06:28:22.249Z,31.15
2017-12-03T06:28:56.150Z,30.35
2017-12-03T06:29:30.041Z,31.60
2017-12-03T06:30:03.917Z,31.15
2017-12-03T06:30:37.797Z,29.00
2017-12-03T06:31:11.707Z,31.15
2017-12-03T06:31:45.579Z,31.27
2017-12-03T06:32:19.456Z,31.95
2017-12-03T06:32:53.311Z,32.80
2017-12-03T06:33:27.196Z,30.95
2017-12-03T06:34:01.199Z,32.20
2017-12-03T06:34:35.076Z,29.30
2017-12-03T06:35:08.986Z,30.83
2017-12-03T06:35:42.863Z,30.73
2017-12-03T06:36:16.733Z,31.08
2017-12-03T06:36:50.630Z,32.15
2017-12-03T06:37:24.504Z,30.00
2017-12-03T06:37:58.365Z,30.70
2017-12-03T06:38:32.242Z,30.98
2017-12-03T06:39:06.102Z,28.98
2017-12-03T06:39:39.957Z,30.75
2017-12-03T06:40:13.825Z,31.20
2017-12-03T06:40:47.689Z,29.87
2017-12-03T06:41:21.547Z,29.73
2017-12-03T06:41:55.426Z,29.58
2017-12-03T06:42:29.289Z,30.92
2017-12-03T06:43:03.160Z,30.70
2017-12-03T06:43:37.027Z,32.95
2017-12-03T06:44:11.005Z,30.45
2017-12-03T06:44:44.871Z,31.20
2017-12-03T06:45:18.744Z,32.33
2017-12-03T06:45:52.643Z,29.83
2017-12-03T06:46:26.516Z,31.23
2017-12-03T06:47:00.585Z,30.00
2017-12-03T06:47:34.441Z,29.48
2017-12-03T06:48:08.317Z,32.15
2017-12-03T06:48:42.196Z,29.27
2017-12-03T06:49:16.068Z,28.25
2017-12-03T06:49:49.921Z,27.73
2017-12-03T06:50:23.788Z,30.73
2017-12-03T06:50:57.690Z,28.65
2017-12-03T06:51:31.543Z,30.45
2017-12-03T06:52:05.398Z,28.27
2017-12-03T06:52:39.262Z,29.83
2017-12-03T06:53:13.235Z,30.45
2017-12-03T06:53:47.099Z,28.87
2017-12-03T06:54:20.950Z,29.85
2017-12-03T06:54:54.827Z,28.98
2017-12-03T06:55:28.703Z,31.87
2017-12-03T06:56:02.600Z,29.83
2017-12-03T06:56:36.461Z,28.15
2017-12-03T06:57:10.362Z,28.40
2017-12-03T06:57:44.237Z,29.10
2017-12-03T06:58:18.112Z,29.10
2017-12-03T06:58:51.971Z,29.85
2017-12-03T06:59:25.825Z,29.15
2017-12-03T06:59:59.689Z,27.62
2017-12-03T07:00:33.558Z,28.60
2017-12-03T07:01:07.435Z,27.30
2017-12-03T07:01:41.286Z,30.08
2017-12-03T07:02:15.167Z,28.10
2017-12-03T07:02:49.026Z,28.45
2017-12-03T07:03:22.894Z,30.23
2017-12-03T07:03:56.748Z,30.67
2017-12-03T07:04:30.611Z,28.50
2017-12-03T07:05:04.479Z,28.33
2017-12-03T07:05:38.375Z,29.48
2017-12-03T07:06:12.250Z,29.20
2017-12-03T07:06:46.116Z,28.38
2017-12-03T07:07:19.974Z,27.65
2017-12-03T07:07:53.884Z,27.80
2017-12-03T07:08:27.749Z,27.33
2017-12-03T07:09:01.618Z,28.87
2017-12-03T07:09:35.473Z,26.73
2017-12-03T07:10:09.328Z,27.00
2017-12-03T07:10:43.199Z,28.20
2017-12-03T07:11:17.064Z,30.10
2017-12-03T07:11:50.915Z,29.50
2017-12-03T07:12:24.781Z,27.05
2017-12-03T07:12:58.655Z,28.62
2017-12-03T07:13:32.522Z,29.27
2017-12-03T07:14:06.405Z,29.65
2017-12-03T07:14:40.256Z,28.60
2017-12-03T07:15:14.127Z,28.20
2017-12-03T07:15:47.988Z,28.70
2017-12-03T07:16:21.864Z,28.70
2017-12-03T07:16:55.908Z,27.17
2017-12-03T07:17:29.764Z,29.55
2017-12-03T07:18:03.624Z,28.02
2017-12-03T07:18:37.593Z,27.70
2017-12-03T07:19:11.454Z,25.75
2017-12-03T07:19:45.321Z,28.52
2017-12-03T07:20:19.280Z,25.62
2017-12-03T07:20:53.149Z,27.15
2017-12-03T07:21:27.033Z,27.75
2017-12-03T07:22:00.899Z,26.65
2017-12-03T07:22:34.766Z,27.77
2017-12-03T07:23:08.628Z,30.15
2017-12-03T07:23:42.484Z,26.87
2017-12-03T07:24:16.361Z,28.42
2017-12-03T07:24:50.242Z,28.67
2017-12-03T07:25:24.126Z,28.87
2017-12-03T07:25:58.013Z,27.05
2017-12-03T07:26:31.885Z,28.87
2017-12-03T07:27:05.753Z,27.95
2017-12-03T07:27:39.622Z,27.55
2017-12-03T07:28:13.535Z,28.60
2017-12-03T07:28:47.438Z,28.00
2017-12-03T07:29:21.310Z,29.30
2017-12-03T07:29:55.186Z,26.75
2017-12-03T07:30:29.063Z,28.25
2017-12-03T07:31:02.944Z,27.40
2017-12-03T07:31:36.829Z,26.17
2017-12-03T07:32:10.699Z,27.10
2017-12-03T07:32:44.569Z,27.98
2017-12-03T07:33:18.437Z,28.30
2017-12-03T07:33:52.309Z,27.70
2017-12-03T07:34:26.174Z,27.33
2017-12-03T07:35:00.031Z,28.23
2017-12-03T07:35:33.914Z,27.98
2017-12-03T07:36:07.777Z,25.60